This is the latest recevied weather packets stored in our database for station/object E70ARA-3. If no packets are shown the sender has not sent any weather packets the latest 10 day(s).
| Time | Temp. | Humidity | Pressure | Rain* | Wind** | Luminosity | Snow |
|---|---|---|---|---|---|---|---|
| 1777433264 | 9.44° C | 76% | 1030 hPa | - | - | - | - |
| 1777432363 | 10° C | 75% | 1029.9 hPa | - | - | - | - |
| 1777431463 | 10° C | 74% | 1029.8 hPa | - | - | - | - |
| 1777430563 | 10.56° C | 73% | 1029.6 hPa | - | - | - | - |
| 1777429663 | 10.56° C | 72% | 1029.6 hPa | - | - | - | - |
| 1777428762 | 11.11° C | 71% | 1029.6 hPa | - | - | - | - |
| 1777427862 | 11.11° C | 71% | 1029.5 hPa | - | - | - | - |
| 1777426967 | 10.56° C | 71% | 1029.5 hPa | - | - | - | - |
| 1777426067 | 11.11° C | 68% | 1029.4 hPa | - | - | - | - |
| 1777425167 | 11.67° C | 66% | 1029.3 hPa | - | - | - | - |
| 1777424267 | 11.67° C | 66% | 1029.2 hPa | - | - | - | - |
| 1777423367 | 12.22° C | 67% | 1029.3 hPa | - | - | - | - |
| 1777422466 | 11.67° C | 67% | 1029.3 hPa | - | - | - | - |
| 1777421566 | 12.22° C | 67% | 1029.2 hPa | - | - | - | - |
| 1777420666 | 12.22° C | 64% | 1029.3 hPa | - | - | - | - |
| 1777419766 | 13.33° C | 62% | 1029.2 hPa | - | - | - | - |
| 1777418866 | 12.78° C | 63% | 1029.2 hPa | - | - | - | - |
| 1777417965 | 13.33° C | 61% | 1029.3 hPa | - | - | - | - |
| 1777417065 | 13.89° C | 60% | 1029.3 hPa | - | - | - | - |
| 1777416165 | 14.44° C | 56% | 1029.3 hPa | - | - | - | - |
| 1777415265 | 14.44° C | 55% | 1029.3 hPa | - | - | - | - |
| 1777414364 | 15° C | 55% | 1029.3 hPa | - | - | - | - |
| 1777413464 | 14.44° C | 55% | 1029.2 hPa | - | - | - | - |
| 1777412564 | 15.56° C | 51% | 1029.1 hPa | - | - | - | - |
| 1777411664 | 16.11° C | 50% | 1029 hPa | - | - | - | - |
* Rain since midnight (hover to see other rain measurements)
** Current wind speed in m/s (hover to see current wind gust speed)